aviador You're here:

KLZU Decoded Metar

LAWRENCEVILLE in GA, USA
Report Time2018-02-22 14:56:00
UTC Time2018-02-22 15:04:41
Flight Rules lifr LIFR
WindCalm
Visibility1609 m
Phenomena:Mist
Clouds:Overcast 002 Hf
Expected CloudBase > 400 ft AGL from Temp-Dew spread
Ceiling200 ft
Temp18°C (ISA +5)
Dew Point17°C (94% RH)
QNH1032 hPa
Density Alt1,283 ft
Elevation1,060 ft
Report Wrong Elevation
Raw Report
METAR KLZU 221456Z 00000KT 1SM BR OVC002 18/17 A3048 RMK AO2 SLP316
T01780172 51013 $=

Extra information for KLZU:More info

Metar Taf Metar & Taf Last 4 Metars F.Rules Stats Wind Profile Meteogram Temp Stats Airport Information Weather charts Add Link Nearby VenuesMetar ALERT Operation Metar Decoded Social comments

AIRNAV info for KLZU